Terminal Aerodrome Forecast
Issued by NWS Denver/Boulder, CO

Home | Current Version | Previous Version | Text Only | Print | Product List | Glossary On
Versions: 1 2 3 4 5 6 7 8 9 10 11 12 13 14 15 16 17 18 19 20 21 22 23 24 25 26 27 28 29 30 31 32 33 34 35 36 37 38 39 40 41 42 43 44 45 46 47 48 49 50
000
FTUS45 KBOU 261834 AAA
TAFDEN
TAF AMD
KDEN 261834Z 2619/2724 01007KT 5SM -SN BKN010 BKN025 OVC050
      TEMPO 2619/2620 3SM -SN
     FM262000 01007KT 4SM -SN BR BKN020 OVC030
      TEMPO 2620/2623 2SM -SN BR OVC010
     FM270200 33005KT P6SM VCSH SCT015 BKN030 OVC060
     FM270700 24006KT P6SM SCT025 BKN040 BKN080
     FM271000 21007KT P6SM FEW040 SCT080
     FM271400 21005KT P6SM FEW180
     FM271900 16007KT P6SM FEW180=

USA.gov is the U.S. government's official web portal to all federal, state and local government web resources and services.